Aeroporto :
LOGIN :

Iscrizione | Disclaimer

   EN    FR    IT 

 










Sommario :    VFR   VFR Marginale   IFR   IFR Intensivo   IFR Molto Intensivo
Visibilità : 
Base nubi : 
>= 8 km
>= 3000ft
5 / 8 km
1000 / 3000 ft
1500m / 5 km
500 / 1000 ft
800 / 1500m
200 / 500 ft
< 800m
< 200 ft
Simboli :   Temporali  Nebbia  Neve Forte  Precipitazioni Forti  Vento > 20 kt
SIGMETs :   Varie  Temporali  Ghiacco  Turbolenza  Onda orograficha  Ceneri Vulcaniche






- Altitudine del aeroporto : 1017 ft


LFSL - Brive Souillac

ULTIMO METAR :
  • 220400Z AUTO 00000KT 9999 FEW001 BKN050 05/05 Q1020 TEMPO 3000 BR

METARs OBSOLETI :
  • 220330Z AUTO 12002KT CAVOK 05/05 Q1020 TEMPO 3000 BR
  • 220300Z AUTO 00000KT CAVOK 05/05 Q1020 TEMPO 3000 BR
  • 220230Z AUTO 18001KT CAVOK 05/05 Q1020 TEMPO 3000 BR
  • 220200Z AUTO 00000KT CAVOK 05/05 Q1020
  • 220130Z AUTO 29002KT CAVOK 05/05 Q1020

TAF TAF LFSL
Valido dal 22 a 03 ore il 22 a 12 ore UTC


220200Z 2203/2212 VRB02KT CAVOK
PROB30
TEMPO 2203/2207 3000 BR



MetMap, La meteo Aeronautica in un colpo d'occhio ! - Copyright ORBIFLY Dicembre 2007 - Disclaimer

ORBIFLY MET'MAP TEAM :

Programmazione e sviluppo : Alexandra Zaïnal
Concezione e sviluppo : Baudouin d'Aumeries
Co-Programmazione e sviluppo : Marc-Olivier Méhu
Supporto tecnico e logistico : Manuel Goepfert
Aiuto per la traduzione : Arnaldo La Scala

Contatto : metmap@orbifly.com




FONTI E CREDITI :

   NOAA